Bei Facebook empfehlenBei Twitter postenGoogle plusPinterest

Das Wetter im Erzgebirge am 16.05.2015

Wetter und Klima am 16.05.2015 Holzhau im Erzgebirge (630m ü.NN)
Letzte gemessene Temperatur und Uhrzeit der Messung23:45:00 Uhr8.10 °C
Temperatur (Maximum / Höchstwert) und Uhrzeit der Messung15:45:00 Uhr19.80 °C
Temperatur (Minimum / Tiefstwert) und Uhrzeit der Messung05:30:00-0.20 °C
Errechneter Absolutwert der Temperaturschwankungen zwischen Tmin und Tmax des Tages20.00 K
Errechnete Tagesmitteltemperatur10.23958 °C
Gesamt - Niederschlag des Tages (in flüssiger Form)0.00 Liter / m²
Luftdruck (Maximum / Höchstwert) und Zeitpunkt der Messung23:45:00 Uhr1019.70 hPa
Luftdruck (Minimum / Tiefstwert) und Zeitpunkt der Messung16:00:00 Uhr1017.20 hPa
Errechneter Absolutwert der Luftdruckschwankungen des Tages2.50 hPa
Höchste gemessene Windgeschwindigkeit und Uhrzeit der Messung03:00:00 Uhr183.60 km/h
Errechnete Windhäufigkeit in Relation zu den Messwerten des Tages16.66667 %
Niedrigste Windkühle (Windchill) und Zeitpunkt der Messung03:00:00 Uhr-12.10 °C
Taupunkt (Maximum / Höchstwert) und Uhrzeit der Messung17:15:00 Uhr8.80 °C
Taupunkt (Minimum / Tiefstwert) und Uhrzeit der Messung05:15:00-2.00 °C
Anzahl der automatisch eingelesenen Messwerte 96

Detaillierte Wetter- und Klima- Messwerte für den 16.05.2015 in Holzhau im Erzgebirge (630m ü.NN)
ZeitTemperaturLuftdruckRel. LuftfeuchteWindWindrichtungWindchillTaupunktNiederschlag l/m²
23:45:008.10 °C1019.70 hPa87.00 %6.10 °C 
23:30:008.20 °C1019.70 hPa86.00 %6.00 °C 
23:15:008.30 °C1019.60 hPa85.00 %6.12 km/hWNW7.50 °C5.90 °C 
23:00:008.50 °C1019.40 hPa83.00 %5.80 °C 
22:45:008.80 °C1019.20 hPa80.00 %5.50 °C 
22:30:008.90 °C1019.20 hPa78.00 %7.92 km/hWNW7.70 °C5.30 °C 
22:15:008.90 °C1019.10 hPa77.00 %5.10 °C 
22:00:008.90 °C1019.00 hPa76.00 %4.90 °C 
21:45:008.90 °C1019.00 hPa75.00 %4.70 °C 
21:30:008.90 °C1019.00 hPa73.00 %4.30 °C 
21:15:009.10 °C1018.90 hPa72.00 %4.30 °C 
21:00:009.30 °C1018.80 hPa71.00 %4.30 °C 
20:45:009.60 °C1019.00 hPa69.00 %4.20 °C 
20:30:0010.10 °C1018.70 hPa66.00 %4.00 °C 
20:15:0011.00 °C1018.80 hPa63.00 %4.20 °C 
20:00:0011.70 °C1018.50 hPa63.00 %4.90 °C 
19:45:0012.50 °C1018.30 hPa57.00 %4.20 °C 
19:30:0013.40 °C1018.40 hPa53.00 %4.00 °C 
19:15:0014.20 °C1018.20 hPa54.00 %5.00 °C 
19:00:0014.90 °C1018.00 hPa53.00 %5.40 °C 
18:45:0015.60 °C1017.80 hPa52.00 %5.80 °C 
18:30:0015.90 °C1017.60 hPa52.00 %6.10 °C 
18:15:0016.10 °C1017.70 hPa52.00 %6.30 °C 
18:00:0016.60 °C1017.70 hPa52.00 %6.70 °C 
17:45:0017.50 °C1017.60 hPa52.00 %7.50 °C 
17:30:0018.30 °C1017.30 hPa51.00 %8.00 °C 
17:15:0018.90 °C1017.40 hPa52.00 %8.80 °C 
17:00:0018.70 °C1017.40 hPa51.00 %8.40 °C 
16:45:0018.90 °C1017.40 hPa50.00 %8.30 °C 
16:30:0019.10 °C1017.40 hPa50.00 %8.40 °C 
16:15:0019.40 °C1017.30 hPa49.00 %8.40 °C 
16:00:0019.30 °C1017.20 hPa50.00 %8.60 °C 
15:45:0019.80 °C1017.20 hPa46.00 %7.90 °C 
15:30:0019.30 °C1017.20 hPa47.00 %7.70 °C 
15:15:0019.40 °C1017.20 hPa47.00 %7.80 °C 
15:00:0019.30 °C1017.50 hPa48.00 %8.00 °C 
14:45:0018.80 °C1017.60 hPa47.00 %7.30 °C 
14:30:0018.60 °C1017.60 hPa48.00 %9.72 km/hWSW18.90 °C7.40 °C 
14:15:0018.40 °C1017.80 hPa47.00 %11.88 km/hWNW18.50 °C6.90 °C 
14:00:0018.20 °C1017.80 hPa47.00 %6.70 °C 
13:45:0018.10 °C1017.90 hPa47.00 %6.60 °C 
13:30:0017.90 °C1017.90 hPa45.00 %5.80 °C 
13:15:0017.50 °C1017.90 hPa46.00 %5.80 °C 
13:00:0017.40 °C1018.10 hPa44.00 %6.48 km/hNW17.90 °C5.00 °C 
12:45:0017.30 °C1018.10 hPa45.00 %5.30 °C 
12:30:0017.60 °C1018.20 hPa49.00 %6.80 °C 
12:15:0017.50 °C1018.20 hPa47.00 %6.10 °C 
12:00:0017.50 °C1018.30 hPa48.00 %2.88 km/hNW17.50 °C6.40 °C 
11:45:0017.20 °C1018.50 hPa48.00 %6.10 °C 
11:30:0016.80 °C1018.30 hPa47.00 %5.40 °C 
11:15:0016.70 °C1018.40 hPa51.00 %6.50 °C 
11:00:0016.50 °C1018.60 hPa51.00 %6.30 °C 
10:45:0016.20 °C1018.70 hPa52.00 %3.60 km/hW16.20 °C6.30 °C 
10:30:0016.10 °C1018.40 hPa52.00 %6.30 °C 
10:15:0015.60 °C1018.50 hPa55.00 %6.60 °C 
10:00:0015.20 °C1018.40 hPa55.00 %6.20 °C 
09:45:0014.90 °C1018.50 hPa55.00 %5.04 km/hW15.30 °C6.00 °C 
09:30:0014.70 °C1018.50 hPa59.00 %6.84 km/hWNW14.70 °C6.80 °C 
09:15:0014.50 °C1018.50 hPa62.00 %11.52 km/hWNW13.80 °C7.30 °C 
09:00:0013.90 °C1018.40 hPa65.00 %7.40 °C 
08:45:0013.30 °C1018.60 hPa69.00 %7.70 °C 
08:30:0011.80 °C1018.40 hPa75.00 %7.50 °C 
08:15:0010.40 °C1018.10 hPa77.00 %6.50 °C 
08:00:009.30 °C1017.90 hPa78.00 %5.70 °C 
07:45:007.60 °C1017.90 hPa81.00 %4.60 °C 
07:30:006.10 °C1017.90 hPa86.00 %3.90 °C 
07:15:003.90 °C1017.90 hPa90.00 %2.40 °C 
07:00:001.50 °C1018.00 hPa90.00 %0.00 °C 
06:45:000.90 °C1018.00 hPa90.00 %-0.50 °C 
06:30:000.40 °C1018.00 hPa90.00 %6.48 km/hOSO-1.80 °C-1.00 °C 
06:15:000.10 °C1018.00 hPa90.00 %-1.30 °C 
06:00:00-0.10 °C1018.00 hPa90.00 %-1.70 °C 
05:45:00-0.10 °C1018.00 hPa90.00 %-1.70 °C 
05:30:00-0.20 °C1017.90 hPa90.00 %6.48 km/hO-2.40 °C-1.80 °C 
05:15:00-0.20 °C1017.80 hPa89.00 %5.76 km/hOSO-2.20 °C-2.00 °C 
05:00:00-0.10 °C1018.00 hPa89.00 %-1.90 °C 
04:45:00-0.10 °C1017.70 hPa89.00 %-1.90 °C 
04:30:000.10 °C1017.80 hPa89.00 %-1.50 °C 
04:15:00-0.10 °C1018.00 hPa88.00 %-2.00 °C 
04:00:00-0.10 °C1017.70 hPa88.00 %-2.00 °C 
03:45:000.30 °C1017.60 hPa88.00 %-1.40 °C 
03:30:000.60 °C1017.80 hPa88.00 %-1.20 °C 
03:15:000.60 °C1017.70 hPa88.00 %-1.20 °C 
03:00:000.60 °C1017.50 hPa87.00 %183.60 km/hOSO-12.10 °C-1.30 °C 
02:45:000.80 °C1017.50 hPa87.00 %3.96 km/hOSO0.80 °C-1.10 °C 
02:30:001.00 °C1017.60 hPa87.00 %-0.90 °C 
02:15:001.00 °C1017.80 hPa86.00 %-1.10 °C 
02:00:001.20 °C1017.80 hPa85.00 %-1.00 °C 
01:45:001.40 °C1017.60 hPa85.00 %-0.80 °C 
01:30:001.60 °C1017.40 hPa85.00 %-0.60 °C 
01:15:001.80 °C1017.60 hPa85.00 %6.48 km/hO-0.10 °C-0.40 °C 
01:00:001.60 °C1017.40 hPa84.00 %-0.80 °C 
00:45:001.90 °C1017.40 hPa83.00 %-0.70 °C 
00:30:002.10 °C1017.40 hPa83.00 %-0.50 °C 
00:15:002.20 °C1017.40 hPa82.00 %-0.50 °C 
00:00:002.50 °C1017.30 hPa81.00 %-0.40 °C 

Permanenter Link zu dieser Seite: Wetter im Erzgebirge am 16.05.2015
Performance-Info: Die Erstellung der Seite / Statistik(en) / Tabelle(n) erforderte 5 Datenbankserver-Abfrage(n) und dauerte 101 Millisekunden. (Dieser Messwert ist von der Gesamt-Auslastung des Servers abhängig.)
Erzgebirge - Wetter | Erzgebirge - Wetter (Mobilgeräte) | Komplette Klimadatenbank